createdAt,value
2023-04-20T00:01:24.837Z,7.74
2023-04-20T00:03:52.082Z,7.77
2023-04-20T00:06:21.730Z,7.76
2023-04-20T00:08:48.386Z,7.77
2023-04-20T00:11:14.987Z,7.78
2023-04-20T00:13:42.980Z,7.75
2023-04-20T00:16:09.674Z,7.74
2023-04-20T00:18:36.273Z,7.74
2023-04-20T00:21:03.549Z,7.76
2023-04-20T00:23:30.200Z,6.93
2023-04-20T00:25:56.893Z,7.58
2023-04-20T00:28:23.727Z,7.68
2023-04-20T00:30:51.689Z,7.70
2023-04-20T00:33:18.286Z,7.73
2023-04-20T00:35:44.977Z,7.74
2023-04-20T00:38:11.601Z,7.70
2023-04-20T00:40:38.335Z,7.70
2023-04-20T00:43:14.726Z,7.71
2023-04-20T00:45:41.449Z,7.77
2023-04-20T00:48:09.413Z,7.75
2023-04-20T00:50:37.940Z,7.72
2023-04-20T00:53:05.039Z,7.71
2023-04-20T00:55:31.697Z,7.70
2023-04-20T00:57:58.908Z,7.69
2023-04-20T01:00:26.553Z,7.69
2023-04-20T01:02:53.312Z,7.70
2023-04-20T01:05:21.857Z,7.69
2023-04-20T01:07:48.743Z,7.67
2023-04-20T01:10:15.759Z,7.70
2023-04-20T01:12:42.393Z,7.67
2023-04-20T01:15:09.662Z,7.69
2023-04-20T01:17:39.760Z,7.68
2023-04-20T01:20:09.371Z,7.70
2023-04-20T01:22:47.608Z,7.70
2023-04-20T01:25:14.720Z,7.69
2023-04-20T01:27:41.412Z,7.64
2023-04-20T01:30:09.071Z,7.66
2023-04-20T01:32:35.829Z,7.67
2023-04-20T01:35:03.196Z,7.66
2023-04-20T01:37:30.183Z,7.62
2023-04-20T01:39:58.207Z,7.66
2023-04-20T01:42:24.976Z,7.63
2023-04-20T01:44:51.563Z,7.62
2023-04-20T01:47:18.742Z,7.61
2023-04-20T01:49:45.452Z,7.61
2023-04-20T01:52:12.137Z,7.60
2023-04-20T01:54:38.728Z,7.59
2023-04-20T01:57:06.749Z,7.59
2023-04-20T01:59:33.323Z,7.58
2023-04-20T02:02:00.014Z,7.57
2023-04-20T02:04:26.759Z,7.60
2023-04-20T02:06:53.354Z,7.54
2023-04-20T02:09:19.951Z,7.59
2023-04-20T02:11:46.514Z,7.60
2023-04-20T02:14:14.453Z,5.62
2023-04-20T02:16:41.458Z,7.07
2023-04-20T02:19:08.644Z,6.46
2023-04-20T02:21:35.412Z,5.00
2023-04-20T02:24:02.076Z,4.07
2023-04-20T02:26:28.698Z,4.87
2023-04-20T02:28:55.340Z,6.53
2023-04-20T02:31:23.391Z,7.07
2023-04-20T02:33:50.199Z,7.25
2023-04-20T02:36:16.781Z,7.31
2023-04-20T02:38:43.389Z,7.35
2023-04-20T02:41:10.016Z,7.35
2023-04-20T02:43:36.649Z,7.36
2023-04-20T02:46:03.261Z,7.39
2023-04-20T02:48:31.265Z,7.40
2023-04-20T02:50:57.846Z,6.49
2023-04-20T02:53:24.450Z,7.09
2023-04-20T02:55:51.029Z,5.28
2023-04-20T02:58:17.660Z,5.49
2023-04-20T03:00:44.327Z,6.22
2023-04-20T03:03:11.078Z,6.20
2023-04-20T03:05:39.147Z,7.04
2023-04-20T03:08:07.231Z,7.22
2023-04-20T03:10:34.003Z,7.27
2023-04-20T03:13:00.733Z,7.29
2023-04-20T03:15:27.418Z,7.30
2023-04-20T03:17:54.129Z,7.30
2023-04-20T03:20:20.693Z,7.30
2023-04-20T03:22:48.679Z,7.31
2023-04-20T03:25:15.310Z,7.30
2023-04-20T03:27:41.952Z,7.33
2023-04-20T03:30:09.694Z,7.34
2023-04-20T03:32:36.350Z,7.34
2023-04-20T03:35:03.047Z,7.35
2023-04-20T03:37:29.649Z,7.35
2023-04-20T03:39:57.720Z,7.32
2023-04-20T03:42:24.311Z,7.31
2023-04-20T03:44:50.868Z,7.34
2023-04-20T03:47:17.608Z,7.35
2023-04-20T03:49:44.327Z,7.35
2023-04-20T03:52:10.886Z,7.31
2023-04-20T03:54:37.484Z,7.30
2023-04-20T03:57:06.033Z,7.34
2023-04-20T03:59:32.647Z,7.32
2023-04-20T04:02:00.238Z,7.38
2023-04-20T04:04:27.161Z,5.64
2023-04-20T04:06:53.935Z,6.78
2023-04-20T04:09:20.572Z,7.14
2023-04-20T04:11:47.215Z,7.23
2023-04-20T04:14:15.179Z,7.25
2023-04-20T04:16:41.788Z,7.25
2023-04-20T04:19:08.427Z,7.25
2023-04-20T04:21:35.115Z,7.26
2023-04-20T04:24:01.772Z,7.25
2023-04-20T04:26:28.746Z,7.27
2023-04-20T04:28:56.087Z,7.26
2023-04-20T04:31:24.432Z,7.27
2023-04-20T04:33:51.294Z,7.26
2023-04-20T04:36:17.949Z,7.26
2023-04-20T04:38:44.829Z,7.26
2023-04-20T04:41:12.655Z,7.26
2023-04-20T04:43:39.852Z,7.28
2023-04-20T04:46:08.597Z,7.25
2023-04-20T04:48:37.273Z,7.27
2023-04-20T04:51:04.418Z,7.29
2023-04-20T04:53:31.020Z,7.24
2023-04-20T04:55:57.601Z,7.21
2023-04-20T04:58:24.259Z,7.25
2023-04-20T05:00:50.927Z,7.19
2023-04-20T05:03:17.737Z,7.15
2023-04-20T05:05:46.264Z,7.20
2023-04-20T05:08:12.957Z,7.19
2023-04-20T05:10:39.860Z,7.17
2023-04-20T05:13:06.428Z,7.19
2023-04-20T05:15:33.145Z,7.18
2023-04-20T05:17:59.759Z,7.18
2023-04-20T05:20:26.837Z,7.19
2023-04-20T05:22:54.778Z,7.17
2023-04-20T05:25:21.800Z,7.17
2023-04-20T05:27:48.467Z,7.19
2023-04-20T05:30:21.256Z,7.22
2023-04-20T05:32:51.143Z,7.22
2023-04-20T05:35:18.954Z,7.24
2023-04-20T05:37:47.336Z,7.20
2023-04-20T05:40:15.933Z,7.12
2023-04-20T05:42:42.588Z,7.17
2023-04-20T05:45:10.781Z,7.22
2023-04-20T05:47:37.492Z,6.96
2023-04-20T05:50:05.045Z,7.12
2023-04-20T05:52:31.760Z,7.19
2023-04-20T05:54:59.479Z,7.18
2023-04-20T05:57:27.502Z,7.21
2023-04-20T05:59:55.884Z,7.21
2023-04-20T06:02:23.050Z,7.13
2023-04-20T06:04:49.954Z,7.02
2023-04-20T06:07:16.845Z,6.92
2023-04-20T06:09:43.574Z,7.06
2023-04-20T06:12:10.328Z,7.12
2023-04-20T06:14:38.288Z,7.09
2023-04-20T06:17:04.892Z,6.64
2023-04-20T06:19:31.728Z,6.00
2023-04-20T06:22:00.727Z,6.84
2023-04-20T06:24:27.972Z,7.00
2023-04-20T06:26:54.928Z,7.05
2023-04-20T06:29:21.639Z,6.98
2023-04-20T06:31:49.738Z,6.90
2023-04-20T06:34:16.578Z,7.04
2023-04-20T06:36:43.832Z,7.07
2023-04-20T06:39:13.675Z,7.03
2023-04-20T06:41:40.334Z,6.86
2023-04-20T06:44:07.040Z,6.57
2023-04-20T06:46:33.773Z,6.47
2023-04-20T06:49:01.902Z,6.84
2023-04-20T06:51:29.162Z,6.97
2023-04-20T06:53:55.777Z,6.95
2023-04-20T06:56:22.557Z,7.03
2023-04-20T06:58:49.248Z,6.88
2023-04-20T07:01:16.080Z,7.01
2023-04-20T07:03:43.563Z,7.03
2023-04-20T07:06:11.800Z,6.97
2023-04-20T07:08:39.221Z,7.03
2023-04-20T07:11:05.956Z,7.04
2023-04-20T07:13:33.917Z,6.83
2023-04-20T07:16:00.835Z,6.98
2023-04-20T07:18:27.438Z,6.66
2023-04-20T07:20:54.115Z,6.79
2023-04-20T07:23:22.091Z,6.33
2023-04-20T07:25:48.760Z,6.68
2023-04-20T07:28:15.623Z,6.93
2023-04-20T07:30:42.278Z,6.63
2023-04-20T07:33:09.209Z,6.93
2023-04-20T07:35:35.975Z,6.34
2023-04-20T07:38:02.695Z,5.98
2023-04-20T07:40:30.712Z,6.31
2023-04-20T07:42:57.282Z,6.73
2023-04-20T07:45:24.214Z,6.24
2023-04-20T07:47:52.333Z,6.82
2023-04-20T07:50:18.992Z,6.39
2023-04-20T07:52:45.621Z,6.57
2023-04-20T07:55:14.082Z,5.80
2023-04-20T07:57:42.511Z,5.40
2023-04-20T08:00:10.269Z,6.42
2023-04-20T08:02:37.015Z,6.77
2023-04-20T08:05:04.338Z,6.90
2023-04-20T08:07:31.228Z,6.90
2023-04-20T08:09:58.927Z,6.91
2023-04-20T08:12:25.707Z,6.96
2023-04-20T08:14:53.772Z,7.00
2023-04-20T08:17:20.565Z,6.98
2023-04-20T08:19:47.248Z,6.98
2023-04-20T08:22:13.937Z,6.98
2023-04-20T08:24:40.574Z,6.98
2023-04-20T08:27:08.406Z,7.02
2023-04-20T08:29:35.024Z,7.03
2023-04-20T08:32:03.558Z,7.06
2023-04-20T08:34:30.194Z,7.04
2023-04-20T08:36:56.811Z,7.05
2023-04-20T08:39:24.420Z,7.06
2023-04-20T08:41:53.918Z,7.02
2023-04-20T08:44:20.746Z,7.04
2023-04-20T08:46:48.971Z,7.04
2023-04-20T08:49:18.515Z,7.07
2023-04-20T08:51:46.172Z,6.82
2023-04-20T08:54:13.113Z,7.05
2023-04-20T08:56:41.514Z,7.04
2023-04-20T08:59:12.786Z,7.07
2023-04-20T09:01:41.534Z,6.28
2023-04-20T09:04:20.992Z,6.40
2023-04-20T09:06:52.661Z,6.03
2023-04-20T09:09:20.744Z,5.77
2023-04-20T09:11:48.368Z,5.67
2023-04-20T09:14:17.020Z,5.58
2023-04-20T09:16:51.385Z,5.85
2023-04-20T09:19:23.823Z,6.03
2023-04-20T09:21:51.489Z,6.74
2023-04-20T09:24:19.905Z,6.61
2023-04-20T09:26:47.274Z,6.13
2023-04-20T09:29:18.079Z,6.13
2023-04-20T09:31:44.947Z,5.65
2023-04-20T09:34:12.602Z,5.78
2023-04-20T09:36:41.917Z,5.55
2023-04-20T09:39:10.543Z,5.67
2023-04-20T09:41:38.934Z,5.71
2023-04-20T09:44:06.693Z,5.82
2023-04-20T09:46:34.785Z,6.12
2023-04-20T09:49:03.638Z,6.22
2023-04-20T09:51:33.386Z,6.51
2023-04-20T09:54:02.152Z,6.64
2023-04-20T09:56:29.917Z,6.71
2023-04-20T09:58:58.187Z,6.16
2023-04-20T10:01:25.589Z,5.84
2023-04-20T10:03:56.171Z,5.56
2023-04-20T10:06:24.608Z,5.50
2023-04-20T10:08:52.364Z,5.44
2023-04-20T10:11:37.062Z,5.40
2023-04-20T10:14:20.181Z,5.37
2023-04-20T10:16:59.324Z,5.69
2023-04-20T10:19:36.799Z,6.00
2023-04-20T10:22:04.198Z,6.21
2023-04-20T10:24:31.674Z,5.83
2023-04-20T10:26:59.834Z,5.46
2023-04-20T10:29:27.652Z,5.33
2023-04-20T10:31:54.978Z,5.50
2023-04-20T10:34:30.398Z,5.67
2023-04-20T10:37:07.398Z,5.90
2023-04-20T10:39:34.130Z,5.86
2023-04-20T10:42:02.524Z,6.03
2023-04-20T10:44:29.217Z,5.61
2023-04-20T10:46:56.500Z,5.34
2023-04-20T10:49:26.819Z,5.40
2023-04-20T10:51:55.855Z,5.65
2023-04-20T10:54:22.649Z,5.65
2023-04-20T10:56:51.757Z,5.89
2023-04-20T10:59:21.763Z,5.69
2023-04-20T11:01:49.435Z,5.67
2023-04-20T11:04:18.643Z,6.01
2023-04-20T11:06:46.954Z,6.31
2023-04-20T11:09:19.250Z,6.27
2023-04-20T11:11:46.214Z,6.09
2023-04-20T11:14:13.391Z,6.59
2023-04-20T11:16:52.334Z,6.19
2023-04-20T11:19:27.010Z,6.10
2023-04-20T11:21:53.921Z,6.38
2023-04-20T11:24:22.682Z,6.29
2023-04-20T11:26:50.363Z,6.59
2023-04-20T11:29:30.759Z,6.47
2023-04-20T11:31:59.210Z,6.63
2023-04-20T11:34:26.372Z,6.33
2023-04-20T11:36:56.806Z,6.47
2023-04-20T11:39:24.248Z,6.65
2023-04-20T11:41:52.309Z,6.43
2023-04-20T11:44:21.205Z,6.60
2023-04-20T11:46:49.294Z,6.85
2023-04-20T11:49:17.860Z,6.92
2023-04-20T11:51:44.957Z,7.10
2023-04-20T11:54:11.808Z,6.88
2023-04-20T11:56:38.614Z,6.62
2023-04-20T11:59:05.360Z,6.44
2023-04-20T12:01:33.089Z,6.61
2023-04-20T12:04:02.064Z,6.63
2023-04-20T12:06:31.766Z,6.75
2023-04-20T12:08:58.638Z,6.86
2023-04-20T12:11:25.383Z,6.96
2023-04-20T12:13:53.518Z,7.04
2023-04-20T12:16:20.360Z,6.91
2023-04-20T12:18:47.131Z,7.79
2023-04-20T12:21:14.089Z,7.40
2023-04-20T12:23:43.848Z,7.77
2023-04-20T12:26:10.460Z,7.75
2023-04-20T12:28:37.091Z,7.58
2023-04-20T12:31:03.840Z,7.53
2023-04-20T12:33:31.285Z,7.70
2023-04-20T12:35:57.923Z,8.65
2023-04-20T12:38:24.594Z,8.63
2023-04-20T12:40:52.590Z,8.78
2023-04-20T12:43:19.186Z,7.99
2023-04-20T12:45:45.877Z,8.52
2023-04-20T12:48:12.469Z,8.45
2023-04-20T12:50:39.081Z,8.67
2023-04-20T12:53:05.697Z,8.59
2023-04-20T12:55:32.304Z,8.51
2023-04-20T12:58:00.288Z,8.40
2023-04-20T13:00:26.888Z,8.21
2023-04-20T13:02:54.684Z,8.60
2023-04-20T13:05:21.599Z,8.61
2023-04-20T13:07:48.164Z,8.48
2023-04-20T13:10:14.837Z,8.14
2023-04-20T13:12:41.650Z,8.05
2023-04-20T13:15:10.783Z,7.66
2023-04-20T13:17:37.467Z,7.63
2023-04-20T13:20:05.040Z,7.65
2023-04-20T13:22:31.766Z,7.62
2023-04-20T13:24:58.382Z,8.66
2023-04-20T13:27:24.993Z,8.77
2023-04-20T13:29:51.555Z,8.73
2023-04-20T13:32:19.502Z,8.27
2023-04-20T13:34:46.371Z,8.68
2023-04-20T13:37:13.610Z,8.70
2023-04-20T13:39:40.973Z,8.48
2023-04-20T13:42:07.545Z,8.24
2023-04-20T13:44:34.191Z,8.33
2023-04-20T13:47:01.017Z,8.18
2023-04-20T13:49:29.015Z,7.84
2023-04-20T13:51:55.624Z,7.79
2023-04-20T13:54:22.221Z,8.31
2023-04-20T13:56:48.825Z,8.57
2023-04-20T13:59:15.538Z,7.92
2023-04-20T14:01:42.491Z,7.84
2023-04-20T14:04:09.883Z,8.29
2023-04-20T14:06:38.312Z,8.15
2023-04-20T14:09:04.924Z,8.38
2023-04-20T14:11:31.551Z,8.40
2023-04-20T14:13:58.230Z,8.41
2023-04-20T14:16:25.748Z,8.35
2023-04-20T14:18:52.505Z,8.18
2023-04-20T14:21:19.118Z,8.18
2023-04-20T14:23:47.121Z,8.19
2023-04-20T14:26:13.712Z,8.17
2023-04-20T14:28:40.398Z,8.05
2023-04-20T14:31:07.017Z,8.14
2023-04-20T14:33:33.595Z,7.97
2023-04-20T14:36:00.355Z,8.01
2023-04-20T14:38:26.947Z,8.04
2023-04-20T14:40:54.897Z,8.06
2023-04-20T14:43:21.989Z,8.06
2023-04-20T14:45:50.501Z,8.16
2023-04-20T14:48:17.906Z,8.11
2023-04-20T14:50:44.484Z,7.82
2023-04-20T14:53:11.120Z,7.71
2023-04-20T14:55:37.711Z,7.62
2023-04-20T14:58:05.717Z,7.81
2023-04-20T15:00:32.812Z,7.83
2023-04-20T15:03:00.656Z,7.85
2023-04-20T15:05:27.916Z,7.84
2023-04-20T15:07:54.660Z,7.83
2023-04-20T15:10:21.795Z,7.80
2023-04-20T15:12:48.628Z,7.70
2023-04-20T15:15:17.068Z,7.70
2023-04-20T15:17:44.732Z,7.84
2023-04-20T15:20:12.003Z,7.85
2023-04-20T15:22:38.648Z,7.95
2023-04-20T15:25:06.255Z,7.97
2023-04-20T15:27:32.954Z,7.78
2023-04-20T15:29:59.589Z,7.88
2023-04-20T15:32:30.012Z,7.84
2023-04-20T15:34:56.745Z,7.89
2023-04-20T15:37:23.360Z,7.77
2023-04-20T15:39:50.428Z,7.49
2023-04-20T15:42:17.019Z,7.47
2023-04-20T15:44:43.635Z,7.63
2023-04-20T15:47:10.430Z,7.79
2023-04-20T15:49:40.646Z,7.94
2023-04-20T15:52:08.443Z,8.01
2023-04-20T15:54:35.227Z,7.86
2023-04-20T15:57:03.229Z,7.88
2023-04-20T15:59:30.313Z,7.93
2023-04-20T16:01:56.972Z,7.94
2023-04-20T16:04:24.264Z,7.86
2023-04-20T16:06:52.728Z,7.79
2023-04-20T16:09:20.313Z,7.80
2023-04-20T16:11:47.752Z,7.58
2023-04-20T16:14:14.328Z,7.60
2023-04-20T16:16:40.938Z,7.67
2023-04-20T16:19:07.508Z,7.67
2023-04-20T16:21:34.314Z,7.47
2023-04-20T16:24:02.345Z,7.19
2023-04-20T16:26:29.088Z,7.54
2023-04-20T16:28:55.686Z,7.72
2023-04-20T16:31:22.562Z,7.80
2023-04-20T16:33:49.244Z,7.87
2023-04-20T16:36:18.842Z,7.90
2023-04-20T16:38:45.646Z,7.78
2023-04-20T16:41:13.597Z,7.75
2023-04-20T16:43:41.016Z,7.71
2023-04-20T16:46:11.815Z,7.78
2023-04-20T16:48:38.490Z,7.79
2023-04-20T16:51:05.179Z,7.78
2023-04-20T16:53:31.761Z,7.82
2023-04-20T16:55:58.358Z,7.89
2023-04-20T16:58:26.752Z,7.90
2023-04-20T17:00:53.473Z,7.97
2023-04-20T17:03:21.028Z,7.93
2023-04-20T17:05:47.698Z,7.88
2023-04-20T17:08:14.281Z,7.76
2023-04-20T17:10:40.865Z,7.66
2023-04-20T17:13:07.469Z,7.74
2023-04-20T17:15:35.452Z,7.88
2023-04-20T17:18:02.225Z,7.92
2023-04-20T17:20:28.860Z,7.50
2023-04-20T17:22:55.525Z,7.72
2023-04-20T17:25:22.198Z,7.98
2023-04-20T17:27:48.779Z,8.03
2023-04-20T17:30:15.554Z,8.04
2023-04-20T17:32:43.681Z,7.99
2023-04-20T17:35:10.537Z,8.16
2023-04-20T17:37:37.178Z,8.12
2023-04-20T17:40:06.111Z,8.03
2023-04-20T17:42:32.688Z,8.16
2023-04-20T17:44:59.258Z,8.14
2023-04-20T17:47:28.253Z,8.02
2023-04-20T17:49:56.299Z,8.21
2023-04-20T17:52:22.986Z,8.17
2023-04-20T17:54:49.619Z,8.18
2023-04-20T17:57:16.547Z,8.19
2023-04-20T17:59:43.163Z,8.18
2023-04-20T18:02:10.116Z,8.23
2023-04-20T18:04:37.288Z,8.27
2023-04-20T18:07:06.059Z,8.03
2023-04-20T18:09:32.681Z,7.12
2023-04-20T18:11:59.250Z,7.71
2023-04-20T18:14:25.846Z,7.81
2023-04-20T18:16:54.792Z,8.00
2023-04-20T18:19:21.411Z,8.04
2023-04-20T18:21:48.050Z,8.00
2023-04-20T18:24:16.185Z,7.86
2023-04-20T18:26:42.850Z,7.82
2023-04-20T18:29:09.570Z,7.78
2023-04-20T18:31:37.219Z,8.10
2023-04-20T18:34:04.136Z,8.09
2023-04-20T18:36:32.112Z,8.19
2023-04-20T18:38:58.813Z,8.01
2023-04-20T18:41:27.697Z,7.94
2023-04-20T18:43:55.579Z,7.86
2023-04-20T18:46:22.492Z,7.88
2023-04-20T18:48:49.139Z,7.82
2023-04-20T18:51:15.835Z,7.60
2023-04-20T18:53:42.459Z,7.99
2023-04-20T18:56:10.133Z,7.76
2023-04-20T18:58:38.353Z,6.97
2023-04-20T19:01:05.008Z,6.64
2023-04-20T19:03:32.184Z,6.70
2023-04-20T19:05:59.224Z,6.65
2023-04-20T19:08:25.870Z,6.58
2023-04-20T19:10:56.382Z,6.51
2023-04-20T19:13:23.113Z,6.45
2023-04-20T19:15:55.148Z,6.11
2023-04-20T19:18:21.825Z,7.51
2023-04-20T19:20:48.408Z,7.75
2023-04-20T19:23:14.991Z,7.66
2023-04-20T19:25:41.570Z,7.84
2023-04-20T19:28:08.266Z,7.92
2023-04-20T19:30:35.630Z,7.94
2023-04-20T19:33:05.038Z,7.95
2023-04-20T19:35:32.264Z,7.94
2023-04-20T19:37:59.607Z,7.96
2023-04-20T19:40:27.164Z,8.04
2023-04-20T19:42:53.808Z,8.02
2023-04-20T19:45:20.427Z,8.01
2023-04-20T19:47:47.088Z,8.02
2023-04-20T19:50:15.765Z,8.06
2023-04-20T19:52:42.459Z,8.06
2023-04-20T19:55:09.990Z,8.06
2023-04-20T19:57:36.613Z,8.06
2023-04-20T20:00:04.768Z,8.06
2023-04-20T20:02:31.548Z,8.09
2023-04-20T20:04:58.197Z,8.09
2023-04-20T20:07:26.499Z,8.11
2023-04-20T20:09:53.137Z,8.10
2023-04-20T20:12:19.707Z,8.10
2023-04-20T20:14:46.279Z,8.13
2023-04-20T20:17:13.619Z,8.12
2023-04-20T20:19:42.311Z,8.11
2023-04-20T20:22:09.473Z,8.09
2023-04-20T20:24:37.561Z,8.11
2023-04-20T20:27:04.580Z,8.09
2023-04-20T20:29:31.538Z,8.09
2023-04-20T20:31:58.132Z,8.09
2023-04-20T20:34:24.765Z,8.07
2023-04-20T20:36:53.192Z,8.10
2023-04-20T20:39:19.973Z,8.07
2023-04-20T20:41:51.346Z,8.08
2023-04-20T20:44:18.671Z,8.09
2023-04-20T20:46:45.811Z,8.11
2023-04-20T20:49:12.445Z,8.12
2023-04-20T20:51:39.073Z,8.13
2023-04-20T20:54:05.827Z,8.11
2023-04-20T20:56:32.419Z,7.08
2023-04-20T20:59:00.514Z,7.81
2023-04-20T21:01:27.472Z,7.97
2023-04-20T21:03:54.326Z,7.97
2023-04-20T21:06:21.287Z,8.03
2023-04-20T21:08:48.706Z,8.08
2023-04-20T21:11:15.299Z,8.05
2023-04-20T21:13:41.877Z,8.01
2023-04-20T21:16:09.840Z,8.02
2023-04-20T21:18:36.470Z,8.07
2023-04-20T21:21:03.214Z,8.08
2023-04-20T21:23:29.837Z,8.04
2023-04-20T21:25:56.775Z,8.01
2023-04-20T21:28:23.485Z,7.99
2023-04-20T21:30:50.362Z,8.02
2023-04-20T21:33:18.368Z,8.01
2023-04-20T21:35:45.255Z,8.02
2023-04-20T21:38:11.835Z,7.97
2023-04-20T21:40:38.400Z,7.99
2023-04-20T21:43:04.996Z,8.03
2023-04-20T21:45:31.568Z,7.99
2023-04-20T21:47:58.257Z,8.00
2023-04-20T21:50:27.388Z,8.00
2023-04-20T21:52:54.503Z,8.00
2023-04-20T21:55:21.271Z,7.95
2023-04-20T21:57:47.958Z,7.97
2023-04-20T22:00:15.453Z,7.98
2023-04-20T22:02:42.213Z,7.96
2023-04-20T22:05:10.222Z,8.01
2023-04-20T22:07:38.345Z,7.95
2023-04-20T22:10:06.900Z,7.93
2023-04-20T22:12:39.423Z,7.99
2023-04-20T22:15:11.066Z,7.98
2023-04-20T22:17:37.964Z,7.91
2023-04-20T22:20:09.120Z,7.70
2023-04-20T22:22:36.184Z,7.88
2023-04-20T22:25:05.925Z,7.94
2023-04-20T22:27:32.436Z,7.90
2023-04-20T22:29:59.212Z,7.88
2023-04-20T22:32:25.877Z,7.87
2023-04-20T22:34:52.506Z,7.87
2023-04-20T22:37:19.246Z,7.87
2023-04-20T22:39:45.810Z,7.88
2023-04-20T22:42:13.765Z,7.89
2023-04-20T22:44:40.574Z,7.87
2023-04-20T22:47:07.383Z,7.84
2023-04-20T22:49:34.816Z,7.83
2023-04-20T22:52:01.461Z,7.82
2023-04-20T22:54:28.081Z,7.81
2023-04-20T22:56:54.693Z,7.79
2023-04-20T22:59:22.675Z,7.84
2023-04-20T23:01:49.290Z,7.86
2023-04-20T23:04:16.210Z,7.86
2023-04-20T23:06:43.894Z,7.60
2023-04-20T23:09:12.414Z,6.73
2023-04-20T23:11:39.503Z,7.60
2023-04-20T23:14:06.392Z,7.28
2023-04-20T23:16:34.738Z,7.50
2023-04-20T23:19:01.554Z,7.70
2023-04-20T23:21:28.520Z,7.68
2023-04-20T23:23:58.258Z,7.69
2023-04-20T23:26:25.067Z,7.73
2023-04-20T23:28:52.121Z,7.79
2023-04-20T23:31:18.947Z,7.74
2023-04-20T23:33:47.685Z,7.73
2023-04-20T23:36:14.663Z,7.70
2023-04-20T23:38:41.374Z,7.68
2023-04-20T23:41:09.135Z,7.71
2023-04-20T23:43:35.757Z,7.77
2023-04-20T23:46:02.406Z,7.70
2023-04-20T23:48:29.007Z,7.67
2023-04-20T23:50:57.015Z,7.68
2023-04-20T23:53:23.742Z,7.66
2023-04-20T23:55:55.607Z,7.66
2023-04-20T23:58:25.735Z,7.21
